sensor_id;sensor_type;location;lat;lon;timestamp;temperature;humidity
10581;DHT22;5338;51.500;6.802;2022-07-09T00:01:10;18.90;99.90
10581;DHT22;5338;51.500;6.802;2022-07-09T00:03:37;18.90;99.90
10581;DHT22;5338;51.500;6.802;2022-07-09T00:06:05;19.00;99.90
10581;DHT22;5338;51.500;6.802;2022-07-09T00:08:32;18.80;99.90
10581;DHT22;5338;51.500;6.802;2022-07-09T00:10:59;18.70;99.90
10581;DHT22;5338;51.500;6.802;2022-07-09T00:13:26;18.80;99.90
10581;DHT22;5338;51.500;6.802;2022-07-09T00:15:53;18.80;99.90
10581;DHT22;5338;51.500;6.802;2022-07-09T00:18:20;18.70;99.90
10581;DHT22;5338;51.500;6.802;2022-07-09T00:20:47;18.70;99.90
10581;DHT22;5338;51.500;6.802;2022-07-09T00:23:15;18.70;99.90
10581;DHT22;5338;51.500;6.802;2022-07-09T00:25:42;18.60;99.90
10581;DHT22;5338;51.500;6.802;2022-07-09T00:28:09;18.70;99.90
10581;DHT22;5338;51.500;6.802;2022-07-09T00:30:35;18.60;99.90
10581;DHT22;5338;51.500;6.802;2022-07-09T00:33:02;18.60;99.90
10581;DHT22;5338;51.500;6.802;2022-07-09T00:35:29;18.60;99.90
10581;DHT22;5338;51.500;6.802;2022-07-09T00:37:56;18.60;99.90
10581;DHT22;5338;51.500;6.802;2022-07-09T00:40:24;18.70;99.90
10581;DHT22;5338;51.500;6.802;2022-07-09T00:42:51;18.70;99.90
10581;DHT22;5338;51.500;6.802;2022-07-09T00:45:18;18.70;99.90
10581;DHT22;5338;51.500;6.802;2022-07-09T00:47:45;18.60;99.90
10581;DHT22;5338;51.500;6.802;2022-07-09T00:50:13;18.60;99.90
10581;DHT22;5338;51.500;6.802;2022-07-09T00:52:41;18.60;99.90
10581;DHT22;5338;51.500;6.802;2022-07-09T00:55:09;18.60;99.90
10581;DHT22;5338;51.500;6.802;2022-07-09T00:57:38;18.60;99.90
10581;DHT22;5338;51.500;6.802;2022-07-09T01:00:06;18.50;99.90
10581;DHT22;5338;51.500;6.802;2022-07-09T01:02:34;18.50;99.90
10581;DHT22;5338;51.500;6.802;2022-07-09T01:05:01;18.40;99.90
10581;DHT22;5338;51.500;6.802;2022-07-09T01:07:28;18.50;99.90
10581;DHT22;5338;51.500;6.802;2022-07-09T01:09:55;18.50;99.90
10581;DHT22;5338;51.500;6.802;2022-07-09T01:12:21;18.50;99.90
10581;DHT22;5338;51.500;6.802;2022-07-09T01:14:50;18.40;99.90
10581;DHT22;5338;51.500;6.802;2022-07-09T01:17:17;18.40;99.90
10581;DHT22;5338;51.500;6.802;2022-07-09T01:19:44;18.40;99.90
10581;DHT22;5338;51.500;6.802;2022-07-09T01:22:12;18.30;99.90
10581;DHT22;5338;51.500;6.802;2022-07-09T01:24:39;18.30;99.90
10581;DHT22;5338;51.500;6.802;2022-07-09T01:27:06;18.30;99.90
10581;DHT22;5338;51.500;6.802;2022-07-09T01:29:34;18.30;99.90
10581;DHT22;5338;51.500;6.802;2022-07-09T01:32:01;18.20;99.90
10581;DHT22;5338;51.500;6.802;2022-07-09T01:34:28;18.20;99.90
10581;DHT22;5338;51.500;6.802;2022-07-09T01:36:55;18.20;99.90
10581;DHT22;5338;51.500;6.802;2022-07-09T01:39:23;18.20;99.90
10581;DHT22;5338;51.500;6.802;2022-07-09T01:41:50;18.30;99.90
10581;DHT22;5338;51.500;6.802;2022-07-09T01:44:17;18.30;99.90
10581;DHT22;5338;51.500;6.802;2022-07-09T01:46:44;18.30;99.90
10581;DHT22;5338;51.500;6.802;2022-07-09T01:49:11;18.30;99.90
10581;DHT22;5338;51.500;6.802;2022-07-09T01:51:37;18.40;99.90
10581;DHT22;5338;51.500;6.802;2022-07-09T01:54:04;18.40;99.90
10581;DHT22;5338;51.500;6.802;2022-07-09T01:56:32;18.40;99.90
10581;DHT22;5338;51.500;6.802;2022-07-09T01:59:00;18.40;99.90
10581;DHT22;5338;51.500;6.802;2022-07-09T02:01:27;18.40;99.90
10581;DHT22;5338;51.500;6.802;2022-07-09T02:03:54;18.40;99.90
10581;DHT22;5338;51.500;6.802;2022-07-09T02:06:21;18.40;99.90
10581;DHT22;5338;51.500;6.802;2022-07-09T02:08:48;18.40;99.90
10581;DHT22;5338;51.500;6.802;2022-07-09T02:11:15;18.40;99.90
10581;DHT22;5338;51.500;6.802;2022-07-09T02:13:43;18.40;99.90
10581;DHT22;5338;51.500;6.802;2022-07-09T02:16:10;18.60;99.90
10581;DHT22;5338;51.500;6.802;2022-07-09T02:18:37;18.30;99.90
10581;DHT22;5338;51.500;6.802;2022-07-09T02:21:04;18.30;99.90
10581;DHT22;5338;51.500;6.802;2022-07-09T02:23:32;18.30;99.90
10581;DHT22;5338;51.500;6.802;2022-07-09T02:25:59;17.90;99.90
10581;DHT22;5338;51.500;6.802;2022-07-09T02:28:26;18.30;99.90
10581;DHT22;5338;51.500;6.802;2022-07-09T02:30:54;18.30;99.90
10581;DHT22;5338;51.500;6.802;2022-07-09T02:33:23;18.30;99.90
10581;DHT22;5338;51.500;6.802;2022-07-09T02:35:50;18.30;99.90
10581;DHT22;5338;51.500;6.802;2022-07-09T02:38:17;18.30;99.90
10581;DHT22;5338;51.500;6.802;2022-07-09T02:40:46;18.30;99.90
10581;DHT22;5338;51.500;6.802;2022-07-09T02:43:13;18.30;99.90
10581;DHT22;5338;51.500;6.802;2022-07-09T02:45:40;18.30;99.90
10581;DHT22;5338;51.500;6.802;2022-07-09T02:48:08;18.40;99.90
10581;DHT22;5338;51.500;6.802;2022-07-09T02:50:35;18.40;99.90
10581;DHT22;5338;51.500;6.802;2022-07-09T02:53:02;18.40;99.90
10581;DHT22;5338;51.500;6.802;2022-07-09T02:55:29;18.40;99.90
10581;DHT22;5338;51.500;6.802;2022-07-09T02:57:56;18.40;99.90
10581;DHT22;5338;51.500;6.802;2022-07-09T03:00:23;18.40;99.90
10581;DHT22;5338;51.500;6.802;2022-07-09T03:02:49;18.40;99.90
10581;DHT22;5338;51.500;6.802;2022-07-09T03:05:18;18.50;99.90
10581;DHT22;5338;51.500;6.802;2022-07-09T03:07:45;18.50;99.90
10581;DHT22;5338;51.500;6.802;2022-07-09T03:10:12;18.50;99.90
10581;DHT22;5338;51.500;6.802;2022-07-09T03:12:38;18.50;99.90
10581;DHT22;5338;51.500;6.802;2022-07-09T03:15:07;18.50;99.90
10581;DHT22;5338;51.500;6.802;2022-07-09T03:17:34;18.50;99.90
10581;DHT22;5338;51.500;6.802;2022-07-09T03:20:01;18.50;99.90
10581;DHT22;5338;51.500;6.802;2022-07-09T03:22:29;18.50;99.90
10581;DHT22;5338;51.500;6.802;2022-07-09T03:24:56;18.50;99.90
10581;DHT22;5338;51.500;6.802;2022-07-09T03:27:23;18.60;99.90
10581;DHT22;5338;51.500;6.802;2022-07-09T03:29:50;18.60;99.90
10581;DHT22;5338;51.500;6.802;2022-07-09T03:32:17;18.50;99.90
10581;DHT22;5338;51.500;6.802;2022-07-09T03:34:44;18.60;99.90
10581;DHT22;5338;51.500;6.802;2022-07-09T03:37:11;18.60;99.90
10581;DHT22;5338;51.500;6.802;2022-07-09T03:39:40;18.60;99.90
10581;DHT22;5338;51.500;6.802;2022-07-09T03:42:07;18.60;99.90
10581;DHT22;5338;51.500;6.802;2022-07-09T03:44:33;18.60;99.90
10581;DHT22;5338;51.500;6.802;2022-07-09T03:47:00;18.60;99.90
10581;DHT22;5338;51.500;6.802;2022-07-09T03:49:27;18.50;99.90
10581;DHT22;5338;51.500;6.802;2022-07-09T03:51:54;18.50;99.90
10581;DHT22;5338;51.500;6.802;2022-07-09T03:54:21;18.40;99.90
10581;DHT22;5338;51.500;6.802;2022-07-09T03:56:50;18.40;99.90
10581;DHT22;5338;51.500;6.802;2022-07-09T03:59:17;18.40;99.90
10581;DHT22;5338;51.500;6.802;2022-07-09T04:01:44;18.40;99.90
10581;DHT22;5338;51.500;6.802;2022-07-09T04:04:11;18.40;99.90
10581;DHT22;5338;51.500;6.802;2022-07-09T04:06:38;18.30;99.90
10581;DHT22;5338;51.500;6.802;2022-07-09T04:09:05;18.30;99.90
10581;DHT22;5338;51.500;6.802;2022-07-09T04:11:32;18.30;99.90
10581;DHT22;5338;51.500;6.802;2022-07-09T04:14:01;18.30;99.90
10581;DHT22;5338;51.500;6.802;2022-07-09T04:16:29;18.30;99.90
10581;DHT22;5338;51.500;6.802;2022-07-09T04:18:56;18.30;99.90
10581;DHT22;5338;51.500;6.802;2022-07-09T04:21:23;18.30;99.90
10581;DHT22;5338;51.500;6.802;2022-07-09T04:23:50;18.30;99.90
10581;DHT22;5338;51.500;6.802;2022-07-09T04:26:17;18.30;99.90
10581;DHT22;5338;51.500;6.802;2022-07-09T04:28:44;18.30;99.90
10581;DHT22;5338;51.500;6.802;2022-07-09T04:31:13;18.30;99.90
10581;DHT22;5338;51.500;6.802;2022-07-09T04:33:41;18.30;99.90
10581;DHT22;5338;51.500;6.802;2022-07-09T04:36:09;18.40;99.90
10581;DHT22;5338;51.500;6.802;2022-07-09T04:38:36;18.30;99.90
10581;DHT22;5338;51.500;6.802;2022-07-09T04:41:03;18.30;99.90
10581;DHT22;5338;51.500;6.802;2022-07-09T04:43:30;18.40;99.90
10581;DHT22;5338;51.500;6.802;2022-07-09T04:45:57;18.40;99.90
10581;DHT22;5338;51.500;6.802;2022-07-09T04:48:26;18.40;99.90
10581;DHT22;5338;51.500;6.802;2022-07-09T04:50:53;18.40;99.90
10581;DHT22;5338;51.500;6.802;2022-07-09T04:53:19;18.40;99.90
10581;DHT22;5338;51.500;6.802;2022-07-09T04:55:46;18.50;99.90
10581;DHT22;5338;51.500;6.802;2022-07-09T04:58:13;18.50;99.90
10581;DHT22;5338;51.500;6.802;2022-07-09T05:00:40;18.60;99.90
10581;DHT22;5338;51.500;6.802;2022-07-09T05:03:08;18.60;99.90
10581;DHT22;5338;51.500;6.802;2022-07-09T05:05:36;18.70;99.90
10581;DHT22;5338;51.500;6.802;2022-07-09T05:08:03;18.70;99.90
10581;DHT22;5338;51.500;6.802;2022-07-09T05:10:30;18.70;99.90
10581;DHT22;5338;51.500;6.802;2022-07-09T05:12:57;18.60;99.90
10581;DHT22;5338;51.500;6.802;2022-07-09T05:15:24;18.60;99.90
10581;DHT22;5338;51.500;6.802;2022-07-09T05:17:51;18.60;99.90
10581;DHT22;5338;51.500;6.802;2022-07-09T05:20:18;18.70;99.90
10581;DHT22;5338;51.500;6.802;2022-07-09T05:22:47;18.70;99.90
10581;DHT22;5338;51.500;6.802;2022-07-09T05:25:13;18.70;99.90
10581;DHT22;5338;51.500;6.802;2022-07-09T05:27:41;18.80;99.90
10581;DHT22;5338;51.500;6.802;2022-07-09T05:30:09;18.80;99.90
10581;DHT22;5338;51.500;6.802;2022-07-09T05:32:36;18.90;99.90
10581;DHT22;5338;51.500;6.802;2022-07-09T05:35:03;19.00;99.90
10581;DHT22;5338;51.500;6.802;2022-07-09T05:37:30;19.00;99.90
10581;DHT22;5338;51.500;6.802;2022-07-09T05:39:59;19.10;99.90
10581;DHT22;5338;51.500;6.802;2022-07-09T05:42:31;19.10;99.90
10581;DHT22;5338;51.500;6.802;2022-07-09T05:44:58;19.20;99.90
10581;DHT22;5338;51.500;6.802;2022-07-09T05:47:24;19.20;99.90
10581;DHT22;5338;51.500;6.802;2022-07-09T05:49:51;19.30;99.90
10581;DHT22;5338;51.500;6.802;2022-07-09T05:52:18;19.30;99.90
10581;DHT22;5338;51.500;6.802;2022-07-09T05:54:45;19.50;99.90
10581;DHT22;5338;51.500;6.802;2022-07-09T05:57:13;19.50;99.90
10581;DHT22;5338;51.500;6.802;2022-07-09T05:59:40;19.60;99.90
10581;DHT22;5338;51.500;6.802;2022-07-09T06:02:07;19.70;99.90
10581;DHT22;5338;51.500;6.802;2022-07-09T06:04:34;19.70;99.90
10581;DHT22;5338;51.500;6.802;2022-07-09T06:07:01;19.70;99.90
10581;DHT22;5338;51.500;6.802;2022-07-09T06:09:28;19.70;99.90
10581;DHT22;5338;51.500;6.802;2022-07-09T06:11:55;19.60;99.90
10581;DHT22;5338;51.500;6.802;2022-07-09T06:14:25;19.70;99.90
10581;DHT22;5338;51.500;6.802;2022-07-09T06:16:52;19.90;99.90
10581;DHT22;5338;51.500;6.802;2022-07-09T06:19:20;20.20;99.90
10581;DHT22;5338;51.500;6.802;2022-07-09T06:21:47;20.30;99.90
10581;DHT22;5338;51.500;6.802;2022-07-09T06:24:14;20.30;99.90
10581;DHT22;5338;51.500;6.802;2022-07-09T06:26:41;20.30;99.90
10581;DHT22;5338;51.500;6.802;2022-07-09T06:29:08;20.40;99.90
10581;DHT22;5338;51.500;6.802;2022-07-09T06:31:37;20.50;99.90
10581;DHT22;5338;51.500;6.802;2022-07-09T06:34:03;20.20;99.90
10581;DHT22;5338;51.500;6.802;2022-07-09T06:36:30;20.40;99.90
10581;DHT22;5338;51.500;6.802;2022-07-09T06:38:57;20.40;99.90
10581;DHT22;5338;51.500;6.802;2022-07-09T06:41:41;20.40;99.90
10581;DHT22;5338;51.500;6.802;2022-07-09T06:44:08;20.60;99.90
10581;DHT22;5338;51.500;6.802;2022-07-09T06:46:36;20.60;99.90
10581;DHT22;5338;51.500;6.802;2022-07-09T06:49:04;20.50;99.90
10581;DHT22;5338;51.500;6.802;2022-07-09T06:51:31;20.50;99.90
10581;DHT22;5338;51.500;6.802;2022-07-09T06:53:58;20.50;99.90
10581;DHT22;5338;51.500;6.802;2022-07-09T06:56:32;20.60;99.90
10581;DHT22;5338;51.500;6.802;2022-07-09T06:58:59;21.00;99.90
10581;DHT22;5338;51.500;6.802;2022-07-09T07:01:26;21.20;99.90
10581;DHT22;5338;51.500;6.802;2022-07-09T07:03:54;21.30;99.90
10581;DHT22;5338;51.500;6.802;2022-07-09T07:06:21;21.50;99.90
10581;DHT22;5338;51.500;6.802;2022-07-09T07:08:48;21.70;99.90
10581;DHT22;5338;51.500;6.802;2022-07-09T07:11:15;21.80;99.90
10581;DHT22;5338;51.500;6.802;2022-07-09T07:13:42;21.80;99.90
10581;DHT22;5338;51.500;6.802;2022-07-09T07:16:09;25.40;99.90
10581;DHT22;5338;51.500;6.802;2022-07-09T07:18:36;22.00;99.90
10581;DHT22;5338;51.500;6.802;2022-07-09T07:21:05;22.10;99.90
10581;DHT22;5338;51.500;6.802;2022-07-09T07:23:32;22.40;99.90
10581;DHT22;5338;51.500;6.802;2022-07-09T07:25:59;22.90;99.90
10581;DHT22;5338;51.500;6.802;2022-07-09T07:28:28;23.00;99.90
10581;DHT22;5338;51.500;6.802;2022-07-09T07:30:55;23.00;99.90
10581;DHT22;5338;51.500;6.802;2022-07-09T07:33:22;22.90;99.90
10581;DHT22;5338;51.500;6.802;2022-07-09T07:35:49;23.00;99.90
10581;DHT22;5338;51.500;6.802;2022-07-09T07:38:17;23.30;99.90
10581;DHT22;5338;51.500;6.802;2022-07-09T07:40:44;23.20;99.90
10581;DHT22;5338;51.500;6.802;2022-07-09T07:43:13;23.60;99.90
10581;DHT22;5338;51.500;6.802;2022-07-09T07:45:40;23.60;99.90
10581;DHT22;5338;51.500;6.802;2022-07-09T07:48:07;23.50;99.90
10581;DHT22;5338;51.500;6.802;2022-07-09T07:50:35;23.30;99.90
10581;DHT22;5338;51.500;6.802;2022-07-09T07:53:04;23.10;99.90
10581;DHT22;5338;51.500;6.802;2022-07-09T07:55:33;22.90;99.90
10581;DHT22;5338;51.500;6.802;2022-07-09T07:58:01;22.80;99.90
10581;DHT22;5338;51.500;6.802;2022-07-09T08:00:28;22.60;99.90
10581;DHT22;5338;51.500;6.802;2022-07-09T08:02:55;22.50;99.90
10581;DHT22;5338;51.500;6.802;2022-07-09T08:05:22;22.50;99.90
10581;DHT22;5338;51.500;6.802;2022-07-09T08:07:49;22.30;99.90
10581;DHT22;5338;51.500;6.802;2022-07-09T08:10:16;22.20;99.90
10581;DHT22;5338;51.500;6.802;2022-07-09T08:12:44;22.30;99.90
10581;DHT22;5338;51.500;6.802;2022-07-09T08:15:11;22.30;99.90
10581;DHT22;5338;51.500;6.802;2022-07-09T08:17:38;22.20;99.90
10581;DHT22;5338;51.500;6.802;2022-07-09T08:20:07;22.20;99.90
10581;DHT22;5338;51.500;6.802;2022-07-09T08:22:34;22.20;99.90
10581;DHT22;5338;51.500;6.802;2022-07-09T08:25:01;22.30;99.90
10581;DHT22;5338;51.500;6.802;2022-07-09T08:27:28;22.20;99.90
10581;DHT22;5338;51.500;6.802;2022-07-09T08:29:56;22.10;99.90
10581;DHT22;5338;51.500;6.802;2022-07-09T08:32:23;22.20;99.90
10581;DHT22;5338;51.500;6.802;2022-07-09T08:34:50;22.40;99.90
10581;DHT22;5338;51.500;6.802;2022-07-09T08:37:17;22.40;99.90
10581;DHT22;5338;51.500;6.802;2022-07-09T08:39:44;22.40;99.90
10581;DHT22;5338;51.500;6.802;2022-07-09T08:42:12;22.40;99.90
10581;DHT22;5338;51.500;6.802;2022-07-09T08:44:40;22.80;99.90
10581;DHT22;5338;51.500;6.802;2022-07-09T08:47:20;23.10;99.90
10581;DHT22;5338;51.500;6.802;2022-07-09T08:49:56;23.40;99.90
10581;DHT22;5338;51.500;6.802;2022-07-09T08:52:27;23.80;99.90
10581;DHT22;5338;51.500;6.802;2022-07-09T08:54:55;23.80;99.90
10581;DHT22;5338;51.500;6.802;2022-07-09T08:57:22;23.90;99.90
10581;DHT22;5338;51.500;6.802;2022-07-09T08:59:49;24.20;99.90
10581;DHT22;5338;51.500;6.802;2022-07-09T09:02:18;24.40;99.90
10581;DHT22;5338;51.500;6.802;2022-07-09T09:04:45;24.70;99.90
10581;DHT22;5338;51.500;6.802;2022-07-09T09:07:14;24.50;97.00
10581;DHT22;5338;51.500;6.802;2022-07-09T09:09:41;24.40;97.80
10581;DHT22;5338;51.500;6.802;2022-07-09T09:12:08;24.70;98.40
10581;DHT22;5338;51.500;6.802;2022-07-09T09:14:37;24.90;94.00
10581;DHT22;5338;51.500;6.802;2022-07-09T09:17:07;24.70;93.60
10581;DHT22;5338;51.500;6.802;2022-07-09T09:19:39;24.10;94.30
10581;DHT22;5338;51.500;6.802;2022-07-09T09:22:06;23.80;94.80
10581;DHT22;5338;51.500;6.802;2022-07-09T09:24:34;23.90;96.50
10581;DHT22;5338;51.500;6.802;2022-07-09T09:27:02;24.20;97.30
10581;DHT22;5338;51.500;6.802;2022-07-09T09:29:28;24.40;96.40
10581;DHT22;5338;51.500;6.802;2022-07-09T09:31:56;24.40;96.10
10581;DHT22;5338;51.500;6.802;2022-07-09T09:34:23;24.40;95.90
10581;DHT22;5338;51.500;6.802;2022-07-09T09:36:52;24.40;93.90
10581;DHT22;5338;51.500;6.802;2022-07-09T09:39:21;24.30;94.30
10581;DHT22;5338;51.500;6.802;2022-07-09T09:41:50;24.30;95.00
10581;DHT22;5338;51.500;6.802;2022-07-09T09:44:18;24.30;94.30
10581;DHT22;5338;51.500;6.802;2022-07-09T09:46:46;24.00;93.00
10581;DHT22;5338;51.500;6.802;2022-07-09T09:49:15;23.80;94.30
10581;DHT22;5338;51.500;6.802;2022-07-09T09:51:47;23.80;94.60
10581;DHT22;5338;51.500;6.802;2022-07-09T09:54:17;23.70;95.30
10581;DHT22;5338;51.500;6.802;2022-07-09T09:56:45;23.60;94.70
10581;DHT22;5338;51.500;6.802;2022-07-09T09:59:12;23.60;95.20
10581;DHT22;5338;51.500;6.802;2022-07-09T10:01:40;23.70;96.50
10581;DHT22;5338;51.500;6.802;2022-07-09T10:04:08;23.80;96.80
10581;DHT22;5338;51.500;6.802;2022-07-09T10:06:36;23.80;96.30
10581;DHT22;5338;51.500;6.802;2022-07-09T10:09:04;23.50;94.60
10581;DHT22;5338;51.500;6.802;2022-07-09T10:11:41;23.30;94.30
10581;DHT22;5338;51.500;6.802;2022-07-09T10:14:15;23.20;94.70
10581;DHT22;5338;51.500;6.802;2022-07-09T10:16:43;23.10;96.00
10581;DHT22;5338;51.500;6.802;2022-07-09T10:19:10;23.00;99.30
10581;DHT22;5338;51.500;6.802;2022-07-09T10:21:39;23.00;96.00
10581;DHT22;5338;51.500;6.802;2022-07-09T10:24:07;23.00;96.60
10581;DHT22;5338;51.500;6.802;2022-07-09T10:26:45;23.00;98.00
10581;DHT22;5338;51.500;6.802;2022-07-09T10:29:23;23.20;97.90
10581;DHT22;5338;51.500;6.802;2022-07-09T10:31:51;23.20;96.70
10581;DHT22;5338;51.500;6.802;2022-07-09T10:37:08;23.40;96.90
10581;DHT22;5338;51.500;6.802;2022-07-09T10:39:36;23.60;97.30
10581;DHT22;5338;51.500;6.802;2022-07-09T10:42:07;23.80;96.00
10581;DHT22;5338;51.500;6.802;2022-07-09T10:44:35;23.90;95.30
10581;DHT22;5338;51.500;6.802;2022-07-09T10:47:04;23.90;94.30
10581;DHT22;5338;51.500;6.802;2022-07-09T10:49:33;24.00;94.80
10581;DHT22;5338;51.500;6.802;2022-07-09T10:52:00;24.00;94.80
10581;DHT22;5338;51.500;6.802;2022-07-09T10:54:27;24.30;95.50
10581;DHT22;5338;51.500;6.802;2022-07-09T10:56:54;24.80;94.80
10581;DHT22;5338;51.500;6.802;2022-07-09T10:59:24;24.90;92.10
10581;DHT22;5338;51.500;6.802;2022-07-09T11:01:51;24.90;91.80
10581;DHT22;5338;51.500;6.802;2022-07-09T11:04:28;25.00;91.40
10581;DHT22;5338;51.500;6.802;2022-07-09T11:06:55;25.10;89.80
10581;DHT22;5338;51.500;6.802;2022-07-09T11:09:24;25.20;90.20
10581;DHT22;5338;51.500;6.802;2022-07-09T11:11:52;25.20;90.30
10581;DHT22;5338;51.500;6.802;2022-07-09T11:14:19;25.10;90.50
10581;DHT22;5338;51.500;6.802;2022-07-09T11:16:57;25.00;90.50
10581;DHT22;5338;51.500;6.802;2022-07-09T11:19:25;24.90;89.50
10581;DHT22;5338;51.500;6.802;2022-07-09T11:22:02;24.60;90.20
10581;DHT22;5338;51.500;6.802;2022-07-09T11:24:31;24.30;91.00
10581;DHT22;5338;51.500;6.802;2022-07-09T11:27:01;24.10;92.00
10581;DHT22;5338;51.500;6.802;2022-07-09T11:29:29;24.10;92.80
10581;DHT22;5338;51.500;6.802;2022-07-09T11:31:57;24.40;92.70
10581;DHT22;5338;51.500;6.802;2022-07-09T11:34:25;24.60;92.90
10581;DHT22;5338;51.500;6.802;2022-07-09T11:36:55;24.80;92.20
10581;DHT22;5338;51.500;6.802;2022-07-09T11:39:24;24.80;92.60
10581;DHT22;5338;51.500;6.802;2022-07-09T11:41:51;24.60;92.50
10581;DHT22;5338;51.500;6.802;2022-07-09T11:44:23;24.30;92.10
10581;DHT22;5338;51.500;6.802;2022-07-09T11:47:05;24.00;92.90
10581;DHT22;5338;51.500;6.802;2022-07-09T11:49:34;23.70;94.40
10581;DHT22;5338;51.500;6.802;2022-07-09T11:52:02;23.60;95.10
10581;DHT22;5338;51.500;6.802;2022-07-09T11:56:57;23.20;97.80
10581;DHT22;5338;51.500;6.802;2022-07-09T11:59:28;23.00;99.20
10581;DHT22;5338;51.500;6.802;2022-07-09T12:01:58;22.90;99.90
10581;DHT22;5338;51.500;6.802;2022-07-09T12:04:29;22.80;99.90
10581;DHT22;5338;51.500;6.802;2022-07-09T12:06:57;22.80;99.90
10581;DHT22;5338;51.500;6.802;2022-07-09T12:09:30;22.70;99.90
10581;DHT22;5338;51.500;6.802;2022-07-09T12:11:58;22.70;99.90
10581;DHT22;5338;51.500;6.802;2022-07-09T12:14:25;22.60;99.90
10581;DHT22;5338;51.500;6.802;2022-07-09T12:16:52;22.50;99.90
10581;DHT22;5338;51.500;6.802;2022-07-09T12:19:18;22.50;99.90
10581;DHT22;5338;51.500;6.802;2022-07-09T12:21:47;22.40;99.90
10581;DHT22;5338;51.500;6.802;2022-07-09T12:24:14;22.30;99.90
10581;DHT22;5338;51.500;6.802;2022-07-09T12:26:41;22.30;99.90
10581;DHT22;5338;51.500;6.802;2022-07-09T12:29:08;22.40;99.90
10581;DHT22;5338;51.500;6.802;2022-07-09T12:31:35;22.20;99.90
10581;DHT22;5338;51.500;6.802;2022-07-09T12:34:03;21.90;99.90
10581;DHT22;5338;51.500;6.802;2022-07-09T12:36:30;21.90;99.90
10581;DHT22;5338;51.500;6.802;2022-07-09T12:38:59;21.90;99.90
10581;DHT22;5338;51.500;6.802;2022-07-09T12:41:26;21.70;99.90
10581;DHT22;5338;51.500;6.802;2022-07-09T12:43:53;21.60;99.90
10581;DHT22;5338;51.500;6.802;2022-07-09T12:46:20;21.50;99.90
10581;DHT22;5338;51.500;6.802;2022-07-09T12:48:47;21.40;99.90
10581;DHT22;5338;51.500;6.802;2022-07-09T12:51:13;21.30;99.90
10581;DHT22;5338;51.500;6.802;2022-07-09T12:53:40;21.30;99.90
10581;DHT22;5338;51.500;6.802;2022-07-09T12:56:09;21.70;99.90
10581;DHT22;5338;51.500;6.802;2022-07-09T12:58:35;21.50;99.90
10581;DHT22;5338;51.500;6.802;2022-07-09T13:01:02;21.80;99.90
10581;DHT22;5338;51.500;6.802;2022-07-09T13:03:29;21.90;99.90
10581;DHT22;5338;51.500;6.802;2022-07-09T13:08:24;22.60;99.90
10581;DHT22;5338;51.500;6.802;2022-07-09T13:10:51;23.00;99.90
10581;DHT22;5338;51.500;6.802;2022-07-09T13:13:20;23.20;99.90
10581;DHT22;5338;51.500;6.802;2022-07-09T13:15:47;23.40;99.90
10581;DHT22;5338;51.500;6.802;2022-07-09T13:18:14;23.60;99.90
10581;DHT22;5338;51.500;6.802;2022-07-09T13:20:42;23.80;99.90
10581;DHT22;5338;51.500;6.802;2022-07-09T13:23:09;23.90;99.90
10581;DHT22;5338;51.500;6.802;2022-07-09T13:25:35;24.10;99.90
10581;DHT22;5338;51.500;6.802;2022-07-09T13:28:03;24.10;99.90
10581;DHT22;5338;51.500;6.802;2022-07-09T13:30:31;24.10;99.90
10581;DHT22;5338;51.500;6.802;2022-07-09T13:32:59;24.40;99.90
10581;DHT22;5338;51.500;6.802;2022-07-09T13:35:26;24.50;99.90
10581;DHT22;5338;51.500;6.802;2022-07-09T13:37:53;24.50;99.90
10581;DHT22;5338;51.500;6.802;2022-07-09T13:40:19;24.60;99.90
10581;DHT22;5338;51.500;6.802;2022-07-09T13:42:46;24.60;99.90
10581;DHT22;5338;51.500;6.802;2022-07-09T13:45:13;24.80;99.90
10581;DHT22;5338;51.500;6.802;2022-07-09T13:47:41;24.60;99.90
10581;DHT22;5338;51.500;6.802;2022-07-09T13:50:08;24.70;99.90
10581;DHT22;5338;51.500;6.802;2022-07-09T13:52:36;24.70;99.90
10581;DHT22;5338;51.500;6.802;2022-07-09T13:55:03;24.30;99.90
10581;DHT22;5338;51.500;6.802;2022-07-09T13:57:30;23.80;99.90
10581;DHT22;5338;51.500;6.802;2022-07-09T13:59:57;23.80;99.90
10581;DHT22;5338;51.500;6.802;2022-07-09T14:02:24;24.00;99.90
10581;DHT22;5338;51.500;6.802;2022-07-09T14:04:52;24.10;99.90
10581;DHT22;5338;51.500;6.802;2022-07-09T14:07:20;24.40;99.90
10581;DHT22;5338;51.500;6.802;2022-07-09T14:09:47;24.10;99.90
10581;DHT22;5338;51.500;6.802;2022-07-09T14:12:14;23.90;99.90
10581;DHT22;5338;51.500;6.802;2022-07-09T14:14:42;23.70;99.90
10581;DHT22;5338;51.500;6.802;2022-07-09T14:17:09;23.40;99.90
10581;DHT22;5338;51.500;6.802;2022-07-09T14:19:36;23.40;99.90
10581;DHT22;5338;51.500;6.802;2022-07-09T14:22:05;23.70;99.90
10581;DHT22;5338;51.500;6.802;2022-07-09T14:24:32;23.90;99.90
10581;DHT22;5338;51.500;6.802;2022-07-09T14:26:59;24.20;99.90
10581;DHT22;5338;51.500;6.802;2022-07-09T14:29:26;24.40;99.90
10581;DHT22;5338;51.500;6.802;2022-07-09T14:31:53;24.60;99.90
10581;DHT22;5338;51.500;6.802;2022-07-09T14:34:21;24.70;99.90
10581;DHT22;5338;51.500;6.802;2022-07-09T14:36:49;24.70;99.90
10581;DHT22;5338;51.500;6.802;2022-07-09T14:39:18;24.60;99.20
10581;DHT22;5338;51.500;6.802;2022-07-09T14:41:45;24.50;99.90
10581;DHT22;5338;51.500;6.802;2022-07-09T14:44:12;24.20;97.60
10581;DHT22;5338;51.500;6.802;2022-07-09T14:46:39;24.50;98.40
10581;DHT22;5338;51.500;6.802;2022-07-09T14:49:05;24.70;96.60
10581;DHT22;5338;51.500;6.802;2022-07-09T14:51:33;24.70;94.30
10581;DHT22;5338;51.500;6.802;2022-07-09T14:54:00;24.70;93.40
10581;DHT22;5338;51.500;6.802;2022-07-09T14:56:29;24.90;94.10
10581;DHT22;5338;51.500;6.802;2022-07-09T14:58:56;25.00;93.20
10581;DHT22;5338;51.500;6.802;2022-07-09T15:01:23;25.30;93.40
10581;DHT22;5338;51.500;6.802;2022-07-09T15:03:50;25.00;90.10
10581;DHT22;5338;51.500;6.802;2022-07-09T15:06:17;24.90;89.50
10581;DHT22;5338;51.500;6.802;2022-07-09T15:08:44;24.80;86.80
10581;DHT22;5338;51.500;6.802;2022-07-09T15:11:11;24.70;83.80
10581;DHT22;5338;51.500;6.802;2022-07-09T15:13:40;24.70;84.50
10581;DHT22;5338;51.500;6.802;2022-07-09T15:16:07;24.40;88.60
10581;DHT22;5338;51.500;6.802;2022-07-09T15:18:33;24.50;81.80
10581;DHT22;5338;51.500;6.802;2022-07-09T15:21:00;24.70;84.50
10581;DHT22;5338;51.500;6.802;2022-07-09T15:23:27;24.70;82.90
10581;DHT22;5338;51.500;6.802;2022-07-09T15:25:54;24.70;82.30
10581;DHT22;5338;51.500;6.802;2022-07-09T15:28:21;24.70;82.30
10581;DHT22;5338;51.500;6.802;2022-07-09T15:30:49;24.70;83.10
10581;DHT22;5338;51.500;6.802;2022-07-09T15:33:16;24.60;80.30
10581;DHT22;5338;51.500;6.802;2022-07-09T15:35:43;24.50;81.20
10581;DHT22;5338;51.500;6.802;2022-07-09T15:38:11;24.50;82.00
10581;DHT22;5338;51.500;6.802;2022-07-09T15:40:38;24.50;81.20
10581;DHT22;5338;51.500;6.802;2022-07-09T15:43:05;24.50;81.80
10581;DHT22;5338;51.500;6.802;2022-07-09T15:45:33;24.40;79.20
10581;DHT22;5338;51.500;6.802;2022-07-09T15:48:01;24.30;79.00
10581;DHT22;5338;51.500;6.802;2022-07-09T15:50:28;24.30;76.90
10581;DHT22;5338;51.500;6.802;2022-07-09T15:52:56;24.20;77.20
10581;DHT22;5338;51.500;6.802;2022-07-09T15:55:24;24.20;78.20